MMCS/CJS METAR and TAF weather

Enter ICAO airport designator
Station Type Date Time Source
MMCS METAR 2020/02/24 23:46 UTC NOAA

MMCS 242346Z 23017KT 10SM SKC 19/M06 A2994 RMK SLP085 57023 981


Station Type Date Time Source
MMCS Decoded METAR 2020/02/24 23:46 UTC NOAA

Ciudad Juarez International , Mexico (MMCS) 31-38N 106-26W
Feb 24, 2020 - 06:46 PM EST / 2020.02.24 2346 UTC
Wind: from the SW (230 degrees) at 20 MPH (17 KT):0
Visibility: 10 mile(s):0
Sky conditions: clear
Temperature: 66 F (19 C)
Dew Point: 21 F (-6 C)
Relative Humidity: 17%
Pressure (altimeter): 29.94 in. Hg (1013 hPa)
Pressure tendency: 0.07 inches (2.3 hPa) lower than three hours ago
ob: MMCS 242346Z 23017KT 10SM SKC 19/M06 A2994 RMK SLP085 57023 981
cycle: 0

Station Type Date Time Source
MMCS TAF 2020/02/24 18:36 UTC NOAA

TAF MMCS 241729Z 2418/2518 13005KT P6SM SCT250
BECMG 2420/2421 28015KT
FM250200 28010KT P6SM SKC
BECMG 2505/2506 28006KT
FM251600 30008KT P6SM SKC

Example: see airport list